Terminal Aerodrome Forecast
Issued by NWS

Home | Current Version | Previous Version | Text Only | Print | Product List | Glossary On
Versions: 1 2 3 4 5 6 7 8 9 10 11 12 13 14 15 16
000
FTUS43 KDLH 231700
TAFHIB
TAF
KHIB 231730Z 2318/2418 15009G17KT P6SM BKN120
     FM240600 12009KT P6SM -RA SCT030 OVC040
     FM240800 12009KT 5SM -RA BR OVC025
     FM241500 12010KT 3SM -RA BR OVC007=

USA.gov is the U.S. government's official web portal to all federal, state and local government web resources and services.